Texas Enterprise — KSDF — position and weather

sailwx.info

Track history (hours):
 
Tides and Currents Weather Stations Pressure Air Temp Water Temp Dewpoint Dewpoint Depression Visibility Wind Speed Wind Dir Waves Ship Positions

Texas Enterprise

Owner: U.S. United Ocean Services, LLC, Tampa, FL. More information available from US FCC via Universal Licensing System and Coast Guard Vessel Documentation Center.

Last reported at 2016-May-05 00:32 UTC. Time now 2016-May-05 01:04 UTC.
Position N 27°48' W 082°25'.

Type: Cargo ship. MMSI: 366163000.

Date/timePositionNaut miles runAvg speedWind from/ knotsBaromVisibWave heightAir tempDewpointWater temp
2016-May-05 00:32N 27°48' W 082°25'0 0.0
2016-May-04 23:32N 27°48' W 082°25'0 0.0
2016-May-04 22:32N 27°48' W 082°25'0 0.0
2016-May-04 21:32N 27°48' W 082°25'0 0.0
2016-May-04 20:33N 27°48' W 082°25'0 0.0
2016-May-04 19:33N 27°48' W 082°25'0 0.0
2016-May-04 18:33N 27°48' W 082°25'0 0.0
2016-May-04 17:33N 27°48' W 082°25'1 0.5
2016-May-04 16:33N 27°48' W 082°25'2 2.0
2016-May-04 15:33N 27°49' W 082°27'3 2.9
2016-May-04 14:33N 27°52' W 082°27'8 7.8
2016-May-04 13:33N 27°46' W 082°31'1111.2
2016-May-04 12:33N 27°37' W 082°40'399 8.3
2016-May-02 12:27N 29°37' W 089°54'0 0.0
2016-May-02 02:27N 29°37' W 089°54'0 0.0
2016-May-02 01:33N 29°37' W 089°54'0 0.0
2016-May-02 00:33N 29°37' W 089°54'0 0.0
2016-May-01 23:27N 29°37' W 089°54'0 0.0
2016-May-01 22:33N 29°37' W 089°54'0 0.1
2016-May-01 21:33N 29°37' W 089°54'46010.8
2016-Apr-30 03:05N 24°28' W 083°31'712.2
2016-Apr-30 02:31N 24°23' W 083°25'20011.1
2016-Apr-29 08:33N 25°40' W 080°02'1010.4
2016-Apr-29 07:33N 25°50' W 080°00'1110.8
2016-Apr-29 06:33N 26°01' W 079°59'1110.6
2016-Apr-29 05:33N 26°11' W 079°58'1110.5
2016-Apr-29 04:33N 26°22' W 079°57'1110.8
2016-Apr-29 03:33N 26°33' W 079°57'10 9.9
2016-Apr-29 02:33N 26°43' W 079°56'10 9.9
2016-Apr-29 01:33N 26°52' W 079°55'10 9.6
2016-Apr-29 00:33N 27°02' W 079°55'  
Track history (hours):
 
Tides and Currents Weather Stations Pressure Air Temp Water Temp Dewpoint Dewpoint Depression Visibility Wind Speed Wind Dir Waves Ship Positions

Texas Enterprise

Owner: U.S. United Ocean Services, LLC, Tampa, FL. More information available from US FCC via Universal Licensing System and Coast Guard Vessel Documentation Center.

Last reported at 2016-May-05 00:32 UTC. Time now 2016-May-05 01:04 UTC.
Position N 27°48' W 082°25'.

Type: Cargo ship. MMSI: 366163000.

Date/timePositionNaut miles runAvg speedWind from/ knotsBaromVisibWave heightAir tempDewpointWater temp
2016-May-05 00:32N 27°48' W 082°25'0 0.0
2016-May-04 23:32N 27°48' W 082°25'0 0.0
2016-May-04 22:32N 27°48' W 082°25'0 0.0
2016-May-04 21:32N 27°48' W 082°25'0 0.0
2016-May-04 20:33N 27°48' W 082°25'0 0.0
2016-May-04 19:33N 27°48' W 082°25'0 0.0
2016-May-04 18:33N 27°48' W 082°25'0 0.0
2016-May-04 17:33N 27°48' W 082°25'1 0.5
2016-May-04 16:33N 27°48' W 082°25'2 2.0
2016-May-04 15:33N 27°49' W 082°27'3 2.9
2016-May-04 14:33N 27°52' W 082°27'8 7.8
2016-May-04 13:33N 27°46' W 082°31'1111.2
2016-May-04 12:33N 27°37' W 082°40'399 8.3
2016-May-02 12:27N 29°37' W 089°54'0 0.0
2016-May-02 02:27N 29°37' W 089°54'0 0.0
2016-May-02 01:33N 29°37' W 089°54'0 0.0
2016-May-02 00:33N 29°37' W 089°54'0 0.0
2016-May-01 23:27N 29°37' W 089°54'0 0.0
2016-May-01 22:33N 29°37' W 089°54'0 0.1
2016-May-01 21:33N 29°37' W 089°54'46010.8
2016-Apr-30 03:05N 24°28' W 083°31'712.2
2016-Apr-30 02:31N 24°23' W 083°25'20011.1
2016-Apr-29 08:33N 25°40' W 080°02'1010.4
2016-Apr-29 07:33N 25°50' W 080°00'1110.8
2016-Apr-29 06:33N 26°01' W 079°59'1110.6
2016-Apr-29 05:33N 26°11' W 079°58'1110.5
2016-Apr-29 04:33N 26°22' W 079°57'1110.8
2016-Apr-29 03:33N 26°33' W 079°57'10 9.9
2016-Apr-29 02:33N 26°43' W 079°56'10 9.9
2016-Apr-29 01:33N 26°52' W 079°55'10 9.6
2016-Apr-29 00:33N 27°02' W 079°55'  

Dump ship's entire track history